createdAt,value
2022-11-21T00:01:38.601Z,7.12
2022-11-21T00:04:42.648Z,7.06
2022-11-21T00:07:45.951Z,7.05
2022-11-21T00:10:48.939Z,7.08
2022-11-21T00:13:51.659Z,7.06
2022-11-21T00:16:57.335Z,7.11
2022-11-21T00:20:01.629Z,7.09
2022-11-21T00:23:04.797Z,7.16
2022-11-21T00:26:08.374Z,7.08
2022-11-21T00:29:11.145Z,7.11
2022-11-21T00:32:13.769Z,7.14
2022-11-21T00:35:18.295Z,7.09
2022-11-21T00:38:20.997Z,7.08
2022-11-21T00:41:23.891Z,7.08
2022-11-21T00:44:26.753Z,7.00
2022-11-21T00:47:29.568Z,6.99
2022-11-21T00:50:33.731Z,6.91
2022-11-21T00:53:36.431Z,6.91
2022-11-21T00:56:39.107Z,6.87
2022-11-21T00:59:41.784Z,6.76
2022-11-21T01:02:44.437Z,6.78
2022-11-21T01:05:48.419Z,6.85
2022-11-21T01:08:51.111Z,6.85
2022-11-21T01:11:53.751Z,6.82
2022-11-21T01:14:56.396Z,6.85
2022-11-21T01:17:59.066Z,6.85
2022-11-21T01:21:05.085Z,6.81
2022-11-21T01:24:08.046Z,6.78
2022-11-21T01:27:10.710Z,6.80
2022-11-21T01:30:14.524Z,6.82
2022-11-21T01:33:17.227Z,6.80
2022-11-21T01:36:23.308Z,6.78
2022-11-21T01:39:26.120Z,6.74
2022-11-21T01:42:28.809Z,6.70
2022-11-21T01:45:56.044Z,6.68
2022-11-21T01:49:03.815Z,6.63
2022-11-21T01:52:10.685Z,6.65
2022-11-21T01:55:13.315Z,6.58
2022-11-21T01:58:16.866Z,6.60
2022-11-21T02:01:19.916Z,6.56
2022-11-21T02:04:26.855Z,6.50
2022-11-21T02:07:35.842Z,6.56
2022-11-21T02:10:42.660Z,6.55
2022-11-21T02:13:45.539Z,6.48
2022-11-21T02:16:48.466Z,6.51
2022-11-21T02:19:55.105Z,6.48
2022-11-21T02:23:05.751Z,6.45
2022-11-21T02:26:10.478Z,6.50
2022-11-21T02:29:13.208Z,6.49
2022-11-21T02:32:23.060Z,6.49
2022-11-21T02:35:26.030Z,6.58
2022-11-21T02:38:31.991Z,6.61
2022-11-21T02:41:38.735Z,6.49
2022-11-21T02:44:47.283Z,6.42
2022-11-21T02:47:52.210Z,6.52
2022-11-21T02:50:55.010Z,6.42
2022-11-21T02:53:57.792Z,6.44
2022-11-21T02:57:02.294Z,6.45
2022-11-21T03:00:05.951Z,6.36
2022-11-21T03:03:08.845Z,6.41
2022-11-21T03:06:11.580Z,6.35
2022-11-21T03:09:14.296Z,6.30
2022-11-21T03:12:18.379Z,6.24
2022-11-21T03:15:21.083Z,6.18
2022-11-21T03:18:23.884Z,6.08
2022-11-21T03:21:26.668Z,6.07
2022-11-21T03:24:29.700Z,6.07
2022-11-21T03:27:34.001Z,6.09
2022-11-21T03:30:36.735Z,6.09
2022-11-21T03:33:39.618Z,6.05
2022-11-21T03:36:42.351Z,6.07
2022-11-21T03:39:45.052Z,6.08
2022-11-21T03:42:49.261Z,6.07
2022-11-21T03:45:51.992Z,6.02
2022-11-21T03:48:54.916Z,6.17
2022-11-21T03:51:57.779Z,6.17
2022-11-21T03:55:00.501Z,6.11
2022-11-21T03:58:04.708Z,6.14
2022-11-21T04:01:07.501Z,6.26
2022-11-21T04:04:10.206Z,6.28
2022-11-21T04:07:13.051Z,6.31
2022-11-21T04:10:16.558Z,6.37
2022-11-21T04:13:21.793Z,6.38
2022-11-21T04:16:24.529Z,6.40
2022-11-21T04:19:27.358Z,6.43
2022-11-21T04:22:30.110Z,6.50
2022-11-21T04:25:33.378Z,6.53
2022-11-21T04:28:38.199Z,6.60
2022-11-21T04:31:41.038Z,6.58
2022-11-21T04:34:43.752Z,6.63
2022-11-21T04:37:46.773Z,6.61
2022-11-21T04:40:49.522Z,6.52
2022-11-21T04:43:59.578Z,6.54
2022-11-21T04:47:17.929Z,6.48
2022-11-21T04:50:32.942Z,6.48
2022-11-21T04:53:43.310Z,6.46
2022-11-21T04:56:49.325Z,6.47
2022-11-21T05:00:00.559Z,6.45
2022-11-21T05:03:24.491Z,6.43
2022-11-21T05:06:37.310Z,6.42
2022-11-21T05:09:51.886Z,6.45
2022-11-21T05:13:19.932Z,6.48
2022-11-21T05:16:36.254Z,6.44
2022-11-21T05:19:50.200Z,6.49
2022-11-21T05:22:57.725Z,6.49
2022-11-21T05:26:10.826Z,6.53
2022-11-21T05:29:25.192Z,6.45
2022-11-21T05:32:45.479Z,6.41
2022-11-21T05:35:53.612Z,6.39
2022-11-21T05:39:06.348Z,6.37
2022-11-21T05:42:12.985Z,6.37
2022-11-21T05:45:21.059Z,6.43
2022-11-21T05:48:35.276Z,6.44
2022-11-21T05:51:53.021Z,6.46
2022-11-21T05:55:03.970Z,6.39
2022-11-21T05:58:18.442Z,6.38
2022-11-21T06:01:42.113Z,6.39
2022-11-21T06:04:54.142Z,6.43
2022-11-21T06:08:04.972Z,6.46
2022-11-21T06:11:15.848Z,6.50
2022-11-21T06:14:30.121Z,6.48
2022-11-21T06:17:40.871Z,6.50
2022-11-21T06:20:53.454Z,6.50
2022-11-21T06:24:09.700Z,6.47
2022-11-21T06:27:30.416Z,6.63
2022-11-21T06:30:42.018Z,6.65
2022-11-21T06:33:54.993Z,6.66
2022-11-21T06:37:05.971Z,6.73
2022-11-21T06:40:23.009Z,6.76
2022-11-21T06:43:39.142Z,6.79
2022-11-21T06:47:17.118Z,6.76
2022-11-21T06:50:48.533Z,6.76
2022-11-21T06:54:16.291Z,6.72
2022-11-21T06:57:27.201Z,6.67
2022-11-21T07:00:40.348Z,6.64
2022-11-21T07:04:04.959Z,6.60
2022-11-21T07:07:12.811Z,6.53
2022-11-21T07:10:19.905Z,6.51
2022-11-21T07:13:25.265Z,6.50
2022-11-21T07:16:33.390Z,6.48
2022-11-21T07:19:42.366Z,6.53
2022-11-21T07:22:49.188Z,6.60
2022-11-21T07:26:02.130Z,6.59
2022-11-21T07:29:08.418Z,6.68
2022-11-21T07:32:21.245Z,6.70
2022-11-21T07:35:26.562Z,6.69
2022-11-21T07:38:32.528Z,6.72
2022-11-21T07:41:37.658Z,6.70
2022-11-21T07:44:42.499Z,6.74
2022-11-21T07:48:01.380Z,6.75
2022-11-21T07:51:08.150Z,6.74
2022-11-21T07:54:12.823Z,6.78
2022-11-21T07:57:19.757Z,6.78
2022-11-21T08:00:25.533Z,7.03
2022-11-21T08:03:29.858Z,7.24
2022-11-21T08:06:35.232Z,7.61
2022-11-21T08:09:39.946Z,7.68
2022-11-21T08:12:47.625Z,7.67
2022-11-21T08:15:52.028Z,7.70
2022-11-21T08:18:57.827Z,7.70
2022-11-21T08:22:03.047Z,7.75
2022-11-21T08:25:09.557Z,7.67
2022-11-21T08:28:16.179Z,7.74
2022-11-21T08:31:19.697Z,7.72
2022-11-21T08:34:23.897Z,7.75
2022-11-21T08:37:30.714Z,7.76
2022-11-21T08:40:36.753Z,7.89
2022-11-21T08:43:44.799Z,7.94
2022-11-21T08:46:49.887Z,7.96
2022-11-21T08:49:53.413Z,7.99
2022-11-21T08:53:05.394Z,8.02
2022-11-21T08:56:12.013Z,8.17
2022-11-21T08:59:17.623Z,8.14
2022-11-21T09:02:35.972Z,8.29
2022-11-21T09:05:41.848Z,8.36
2022-11-21T09:08:48.571Z,8.41
2022-11-21T09:11:53.652Z,8.44
2022-11-21T09:15:16.353Z,8.48
2022-11-21T09:18:20.309Z,8.55
2022-11-21T09:21:26.711Z,8.69
2022-11-21T09:24:33.994Z,8.78
2022-11-21T09:27:38.410Z,8.81
2022-11-21T09:30:47.400Z,9.04
2022-11-21T09:33:54.949Z,9.20
2022-11-21T09:37:02.191Z,9.68
2022-11-21T09:40:11.912Z,9.75
2022-11-21T09:43:49.692Z,9.70
2022-11-21T09:47:05.089Z,10.23
2022-11-21T09:50:24.577Z,10.37
2022-11-21T09:53:34.072Z,10.44
2022-11-21T09:56:43.960Z,10.48
2022-11-21T09:59:49.585Z,10.64
2022-11-21T10:02:56.616Z,10.67
2022-11-21T10:06:05.643Z,10.68
2022-11-21T10:09:20.102Z,11.16
2022-11-21T10:12:48.663Z,12.26
2022-11-21T10:16:02.792Z,12.60
2022-11-21T10:19:26.358Z,12.76
2022-11-21T10:22:43.482Z,12.72
2022-11-21T10:25:57.752Z,12.44
2022-11-21T10:29:06.817Z,12.54
2022-11-21T10:32:23.366Z,12.83
2022-11-21T10:35:39.237Z,13.00
2022-11-21T10:38:46.918Z,14.21
2022-11-21T10:41:58.328Z,14.56
2022-11-21T10:45:20.297Z,14.12
2022-11-21T10:48:25.398Z,13.83
2022-11-21T10:51:44.352Z,13.26
2022-11-21T10:55:09.031Z,12.33
2022-11-21T10:58:20.915Z,11.63
2022-11-21T11:01:31.478Z,11.20
2022-11-21T11:04:45.805Z,10.86
2022-11-21T11:08:05.263Z,10.57
2022-11-21T11:11:15.365Z,10.39
2022-11-21T11:14:33.387Z,10.38
2022-11-21T11:17:37.556Z,10.50
2022-11-21T11:20:44.130Z,10.61
2022-11-21T11:23:51.337Z,10.83
2022-11-21T11:27:01.487Z,11.68
2022-11-21T11:30:10.306Z,12.05
2022-11-21T11:33:36.328Z,12.10
2022-11-21T11:36:59.260Z,12.21
2022-11-21T11:40:16.503Z,13.25
2022-11-21T11:43:53.355Z,13.74
2022-11-21T11:47:22.758Z,14.01
2022-11-21T11:50:33.339Z,13.71
2022-11-21T11:53:43.855Z,13.25
2022-11-21T11:56:50.072Z,12.77
2022-11-21T12:00:05.140Z,12.81
2022-11-21T12:03:18.704Z,13.39
2022-11-21T12:06:44.985Z,13.20
2022-11-21T12:10:00.447Z,13.36
2022-11-21T12:13:13.080Z,13.37
2022-11-21T12:16:18.163Z,13.93
2022-11-21T12:19:24.685Z,14.85
2022-11-21T12:22:28.566Z,15.64
2022-11-21T12:25:39.609Z,16.71
2022-11-21T12:29:02.380Z,17.05
2022-11-21T12:32:23.075Z,17.35
2022-11-21T12:35:49.984Z,16.41
2022-11-21T12:39:16.578Z,15.90
2022-11-21T12:42:47.228Z,17.25
2022-11-21T12:45:56.283Z,18.32
2022-11-21T12:49:26.936Z,19.73
2022-11-21T12:52:52.162Z,20.07
2022-11-21T12:56:01.268Z,20.54
2022-11-21T12:59:05.131Z,20.13
2022-11-21T13:02:20.049Z,19.12
2022-11-21T13:05:29.457Z,18.32
2022-11-21T13:08:36.629Z,17.47
2022-11-21T13:11:59.631Z,16.30
2022-11-21T13:15:14.984Z,15.90
2022-11-21T13:18:24.209Z,15.12
2022-11-21T13:21:42.215Z,14.54
2022-11-21T13:24:59.486Z,14.35
2022-11-21T13:28:35.453Z,14.30
2022-11-21T13:31:38.958Z,14.50
2022-11-21T13:34:42.991Z,14.32
2022-11-21T13:38:01.591Z,14.25
2022-11-21T13:41:21.996Z,13.92
2022-11-21T13:44:30.704Z,13.63
2022-11-21T13:48:05.740Z,13.08
2022-11-21T13:51:26.008Z,12.64
2022-11-21T13:54:57.531Z,12.13
2022-11-21T13:58:11.642Z,11.80
2022-11-21T14:01:37.478Z,11.47
2022-11-21T14:05:05.285Z,11.31
2022-11-21T14:08:20.244Z,11.20
2022-11-21T14:11:33.901Z,11.11
2022-11-21T14:14:41.327Z,11.00
2022-11-21T14:17:47.138Z,10.94
2022-11-21T14:20:53.871Z,10.86
2022-11-21T14:23:59.697Z,10.88
2022-11-21T14:27:06.904Z,10.78
2022-11-21T14:30:31.873Z,10.70
2022-11-21T14:33:36.175Z,10.66
2022-11-21T14:36:40.430Z,10.61
2022-11-21T14:39:45.501Z,10.58
2022-11-21T14:42:48.859Z,10.51
2022-11-21T14:45:51.531Z,10.40
2022-11-21T14:48:57.189Z,10.33
2022-11-21T14:52:05.100Z,10.27
2022-11-21T14:55:32.223Z,10.24
2022-11-21T14:58:35.845Z,10.17
2022-11-21T15:01:42.040Z,10.07
2022-11-21T15:04:49.475Z,10.00
2022-11-21T15:08:01.184Z,9.93
2022-11-21T15:11:18.400Z,9.88
2022-11-21T15:14:28.977Z,9.71
2022-11-21T15:17:32.513Z,9.52
2022-11-21T15:20:35.229Z,9.40
2022-11-21T15:23:40.242Z,9.29
2022-11-21T15:26:44.267Z,9.20
2022-11-21T15:29:46.961Z,9.09
2022-11-21T15:33:06.398Z,8.88
2022-11-21T15:36:14.063Z,8.73
2022-11-21T15:39:22.593Z,8.51
2022-11-21T15:42:39.072Z,8.33
2022-11-21T15:45:42.482Z,8.20
2022-11-21T15:48:49.379Z,8.13
2022-11-21T15:52:06.577Z,8.00
2022-11-21T15:55:17.986Z,7.86
2022-11-21T15:58:22.233Z,7.76
2022-11-21T16:01:26.681Z,7.61
2022-11-21T16:04:29.503Z,7.51
2022-11-21T16:07:32.409Z,7.37
2022-11-21T16:10:36.023Z,7.15
2022-11-21T16:13:40.008Z,7.11
2022-11-21T16:16:44.200Z,7.04
2022-11-21T16:19:46.927Z,6.89
2022-11-21T16:22:49.966Z,6.89
2022-11-21T16:25:54.259Z,6.79
2022-11-21T16:28:59.340Z,6.76
2022-11-21T16:32:02.293Z,6.61
2022-11-21T16:35:05.717Z,6.59
2022-11-21T16:38:08.987Z,6.49
2022-11-21T16:41:11.686Z,6.38
2022-11-21T16:44:21.529Z,6.28
2022-11-21T16:47:25.116Z,6.25
2022-11-21T16:50:29.022Z,6.22
2022-11-21T16:53:32.686Z,6.18
2022-11-21T16:56:37.327Z,6.10
2022-11-21T16:59:42.434Z,6.11
2022-11-21T17:02:47.125Z,6.09
2022-11-21T17:05:58.860Z,6.05
2022-11-21T17:09:02.989Z,5.94
2022-11-21T17:12:07.754Z,5.85
2022-11-21T17:15:16.183Z,5.88
2022-11-21T17:18:21.223Z,5.95
2022-11-21T17:21:27.002Z,6.02
2022-11-21T17:24:34.112Z,5.89
2022-11-21T17:27:38.787Z,5.93
2022-11-21T17:30:46.533Z,6.08
2022-11-21T17:33:52.105Z,6.20
2022-11-21T17:36:57.252Z,6.20
2022-11-21T17:40:04.664Z,6.24
2022-11-21T17:43:11.543Z,6.46
2022-11-21T17:46:19.666Z,6.59
2022-11-21T17:49:24.573Z,6.72
2022-11-21T17:52:30.208Z,6.78
2022-11-21T17:55:35.046Z,6.85
2022-11-21T17:58:40.575Z,6.92
2022-11-21T18:01:49.410Z,6.87
2022-11-21T18:04:55.190Z,6.93
2022-11-21T18:08:00.557Z,6.97
2022-11-21T18:11:05.285Z,7.02
2022-11-21T18:14:11.277Z,7.03
2022-11-21T18:17:18.124Z,7.10
2022-11-21T18:20:24.667Z,7.14
2022-11-21T18:23:30.343Z,7.18
2022-11-21T18:26:38.662Z,7.21
2022-11-21T18:29:43.658Z,7.26
2022-11-21T18:32:52.407Z,7.29
2022-11-21T18:35:57.153Z,7.31
2022-11-21T18:39:08.868Z,7.26
2022-11-21T18:42:16.856Z,7.21
2022-11-21T18:45:21.688Z,7.15
2022-11-21T18:48:28.561Z,7.15
2022-11-21T18:51:34.375Z,7.11
2022-11-21T18:54:39.194Z,7.11
2022-11-21T18:57:44.025Z,7.19
2022-11-21T19:00:48.708Z,7.16
2022-11-21T19:03:55.580Z,7.13
2022-11-21T19:07:01.249Z,7.06
2022-11-21T19:10:35.624Z,6.95
2022-11-21T19:13:33.125Z,6.92
2022-11-21T19:16:37.690Z,6.91
2022-11-21T19:19:44.862Z,6.95
2022-11-21T19:22:53.334Z,6.93
2022-11-21T19:26:03.256Z,6.93
2022-11-21T19:29:08.101Z,6.98
2022-11-21T19:32:12.784Z,6.98
2022-11-21T19:35:19.676Z,6.97
2022-11-21T19:38:24.944Z,7.00
2022-11-21T19:41:31.126Z,7.02
2022-11-21T19:44:36.224Z,6.99
2022-11-21T19:47:41.601Z,6.94
2022-11-21T19:50:58.632Z,6.90
2022-11-21T19:54:04.201Z,6.95
2022-11-21T19:57:13.696Z,6.99
2022-11-21T20:00:22.541Z,7.09
2022-11-21T20:03:27.404Z,7.16
2022-11-21T20:06:36.607Z,7.16
2022-11-21T20:09:41.519Z,7.14
2022-11-21T20:12:46.919Z,7.11
2022-11-21T20:15:51.568Z,7.06
2022-11-21T20:18:58.107Z,7.00
2022-11-21T20:22:04.799Z,7.02
2022-11-21T20:25:09.815Z,7.11
2022-11-21T20:28:13.392Z,7.15
2022-11-21T20:31:18.622Z,7.17
2022-11-21T20:34:23.163Z,7.15
2022-11-21T20:37:31.081Z,7.20
2022-11-21T20:40:35.217Z,7.19
2022-11-21T20:44:20.089Z,7.17
2022-11-21T20:47:02.904Z,7.14
2022-11-21T20:50:07.745Z,7.12
2022-11-21T20:53:50.874Z,7.08
2022-11-21T20:56:43.889Z,7.07
2022-11-21T20:59:49.158Z,7.10
2022-11-21T21:02:54.064Z,7.13
2022-11-21T21:06:05.592Z,7.13
2022-11-21T21:09:13.422Z,7.18
2022-11-21T21:12:17.944Z,7.18
2022-11-21T21:15:22.946Z,7.25
2022-11-21T21:18:27.107Z,7.26
2022-11-21T21:21:32.047Z,7.26
2022-11-21T21:24:37.992Z,7.27
2022-11-21T21:27:42.348Z,7.34
2022-11-21T21:30:47.358Z,7.40
2022-11-21T21:33:52.108Z,7.39
2022-11-21T21:36:56.919Z,7.40
2022-11-21T21:40:03.387Z,7.43
2022-11-21T21:43:07.875Z,7.41
2022-11-21T21:46:13.986Z,7.40
2022-11-21T21:49:21.106Z,7.42
2022-11-21T21:52:25.384Z,7.45
2022-11-21T21:55:32.440Z,7.52
2022-11-21T21:58:38.403Z,7.51
2022-11-21T22:01:43.888Z,7.55
2022-11-21T22:04:51.851Z,7.57
2022-11-21T22:07:56.264Z,7.58
2022-11-21T22:11:05.155Z,7.59
2022-11-21T22:14:13.830Z,7.62
2022-11-21T22:17:18.849Z,7.62
2022-11-21T22:20:23.000Z,7.63
2022-11-21T22:23:27.528Z,7.63
2022-11-21T22:26:33.373Z,7.62
2022-11-21T22:29:39.871Z,7.59
2022-11-21T22:32:44.357Z,7.53
2022-11-21T22:35:48.519Z,7.57
2022-11-21T22:38:55.140Z,7.58
2022-11-21T22:42:01.110Z,7.56
2022-11-21T22:45:05.272Z,7.59
2022-11-21T22:48:08.636Z,7.56
2022-11-21T22:51:14.628Z,7.62
2022-11-21T22:54:18.365Z,7.62
2022-11-21T22:57:24.282Z,7.61
2022-11-21T23:00:27.366Z,7.58
2022-11-21T23:03:32.132Z,7.60
2022-11-21T23:06:35.596Z,7.57
2022-11-21T23:09:41.689Z,7.49
2022-11-21T23:12:48.472Z,7.49
2022-11-21T23:15:51.950Z,7.49
2022-11-21T23:18:56.788Z,7.49
2022-11-21T23:22:00.344Z,7.45
2022-11-21T23:25:03.547Z,7.44
2022-11-21T23:28:09.238Z,7.48
2022-11-21T23:31:12.368Z,7.44
2022-11-21T23:34:15.626Z,7.43
2022-11-21T23:37:18.885Z,7.40
2022-11-21T23:40:22.341Z,7.41
2022-11-21T23:43:26.766Z,7.43
2022-11-21T23:46:30.722Z,7.44
2022-11-21T23:49:34.738Z,7.42
2022-11-21T23:52:37.922Z,7.39
2022-11-21T23:55:41.438Z,7.40
2022-11-21T23:58:46.335Z,7.42
